sensor_id;sensor_type;location;lat;lon;timestamp;temperature;humidity
71291;DHT22;59073;51.994;4.448;2023-02-01T00:01:21;7.98;70.91
71291;DHT22;59073;51.994;4.448;2023-02-01T00:03:46;8.06;70.80
71291;DHT22;59073;51.994;4.448;2023-02-01T00:06:12;7.93;70.96
71291;DHT22;59073;51.994;4.448;2023-02-01T00:08:37;7.89;70.99
71291;DHT22;59073;51.994;4.448;2023-02-01T00:11:08;7.90;70.95
71291;DHT22;59073;51.994;4.448;2023-02-01T00:13:36;7.88;70.97
71291;DHT22;59073;51.994;4.448;2023-02-01T00:18:37;7.82;70.79
71291;DHT22;59073;51.994;4.448;2023-02-01T00:21:03;7.82;70.59
71291;DHT22;59073;51.994;4.448;2023-02-01T00:23:32;7.86;70.58
71291;DHT22;59073;51.994;4.448;2023-02-01T00:26:01;7.79;70.57
71291;DHT22;59073;51.994;4.448;2023-02-01T00:28:27;7.76;70.26
71291;DHT22;59073;51.994;4.448;2023-02-01T00:30:57;7.82;69.82
71291;DHT22;59073;51.994;4.448;2023-02-01T00:33:23;7.86;70.04
71291;DHT22;59073;51.994;4.448;2023-02-01T00:35:48;7.86;69.79
71291;DHT22;59073;51.994;4.448;2023-02-01T00:38:13;7.89;69.85
71291;DHT22;59073;51.994;4.448;2023-02-01T00:40:39;7.83;69.95
71291;DHT22;59073;51.994;4.448;2023-02-01T00:43:04;7.85;69.86
71291;DHT22;59073;51.994;4.448;2023-02-01T00:45:30;7.81;70.27
71291;DHT22;59073;51.994;4.448;2023-02-01T00:47:55;7.83;70.37
71291;DHT22;59073;51.994;4.448;2023-02-01T00:50:20;7.83;70.11
71291;DHT22;59073;51.994;4.448;2023-02-01T00:52:46;7.89;70.23
71291;DHT22;59073;51.994;4.448;2023-02-01T00:55:11;7.89;70.38
71291;DHT22;59073;51.994;4.448;2023-02-01T00:57:37;7.82;70.87
71291;DHT22;59073;51.994;4.448;2023-02-01T01:00:02;7.76;71.35
71291;DHT22;59073;51.994;4.448;2023-02-01T01:02:28;7.89;71.36
71291;DHT22;59073;51.994;4.448;2023-02-01T01:04:54;7.76;71.75
71291;DHT22;59073;51.994;4.448;2023-02-01T01:07:19;7.81;71.63
71291;DHT22;59073;51.994;4.448;2023-02-01T01:09:45;7.93;71.35
71291;DHT22;59073;51.994;4.448;2023-02-01T01:12:10;7.88;71.78
71291;DHT22;59073;51.994;4.448;2023-02-01T01:14:35;7.82;72.00
71291;DHT22;59073;51.994;4.448;2023-02-01T01:17:01;7.86;71.87
71291;DHT22;59073;51.994;4.448;2023-02-01T01:19:26;8.00;72.03
71291;DHT22;59073;51.994;4.448;2023-02-01T01:21:52;7.95;72.41
71291;DHT22;59073;51.994;4.448;2023-02-01T01:24:17;7.98;72.19
71291;DHT22;59073;51.994;4.448;2023-02-01T01:26:42;8.02;72.22
71291;DHT22;59073;51.994;4.448;2023-02-01T01:29:09;8.03;72.05
71291;DHT22;59073;51.994;4.448;2023-02-01T01:31:34;8.09;71.82
71291;DHT22;59073;51.994;4.448;2023-02-01T01:34:01;7.99;72.17
71291;DHT22;59073;51.994;4.448;2023-02-01T01:36:28;7.96;72.05
71291;DHT22;59073;51.994;4.448;2023-02-01T01:38:54;8.00;72.00
71291;DHT22;59073;51.994;4.448;2023-02-01T01:41:25;7.99;72.29
71291;DHT22;59073;51.994;4.448;2023-02-01T01:43:59;7.96;72.50
71291;DHT22;59073;51.994;4.448;2023-02-01T01:46:29;7.88;72.58
71291;DHT22;59073;51.994;4.448;2023-02-01T01:49:17;7.88;72.64
71291;DHT22;59073;51.994;4.448;2023-02-01T01:51:50;7.92;72.76
71291;DHT22;59073;51.994;4.448;2023-02-01T01:54:37;7.82;73.11
71291;DHT22;59073;51.994;4.448;2023-02-01T01:57:27;7.82;73.47
71291;DHT22;59073;51.994;4.448;2023-02-01T02:02:36;7.86;73.62
71291;DHT22;59073;51.994;4.448;2023-02-01T02:05:03;7.92;73.52
71291;DHT22;59073;51.994;4.448;2023-02-01T02:07:34;7.96;73.66
71291;DHT22;59073;51.994;4.448;2023-02-01T02:10:03;8.02;73.44
71291;DHT22;59073;51.994;4.448;2023-02-01T02:12:31;8.02;73.15
71291;DHT22;59073;51.994;4.448;2023-02-01T02:14:57;8.02;73.23
71291;DHT22;59073;51.994;4.448;2023-02-01T02:17:26;8.06;73.17
71291;DHT22;59073;51.994;4.448;2023-02-01T02:29:38;8.00;72.47
71291;DHT22;59073;51.994;4.448;2023-02-01T02:38:39;8.06;72.87
71291;DHT22;59073;51.994;4.448;2023-02-01T02:43:57;8.12;72.96
71291;DHT22;59073;51.994;4.448;2023-02-01T02:47:00;8.10;72.97
71291;DHT22;59073;51.994;4.448;2023-02-01T02:56:18;8.26;72.31
71291;DHT22;59073;51.994;4.448;2023-02-01T02:59:06;8.19;72.39
71291;DHT22;59073;51.994;4.448;2023-02-01T03:01:52;8.10;72.58
71291;DHT22;59073;51.994;4.448;2023-02-01T03:04:36;8.00;72.93
71291;DHT22;59073;51.994;4.448;2023-02-01T03:10:13;7.90;73.33
71291;DHT22;59073;51.994;4.448;2023-02-01T03:12:44;7.96;73.36
71291;DHT22;59073;51.994;4.448;2023-02-01T03:15:36;7.88;73.77
71291;DHT22;59073;51.994;4.448;2023-02-01T03:18:11;7.82;73.82
71291;DHT22;59073;51.994;4.448;2023-02-01T03:20:40;7.79;74.10
71291;DHT22;59073;51.994;4.448;2023-02-01T03:23:11;7.71;74.05
71291;DHT22;59073;51.994;4.448;2023-02-01T03:25:40;7.74;73.97
71291;DHT22;59073;51.994;4.448;2023-02-01T03:28:08;7.69;73.92
71291;DHT22;59073;51.994;4.448;2023-02-01T03:33:05;7.76;73.31
71291;DHT22;59073;51.994;4.448;2023-02-01T03:35:54;7.74;73.34
71291;DHT22;59073;51.994;4.448;2023-02-01T03:38:32;7.81;73.50
71291;DHT22;59073;51.994;4.448;2023-02-01T03:41:11;7.83;73.53
71291;DHT22;59073;51.994;4.448;2023-02-01T03:43:54;7.86;73.46
71291;DHT22;59073;51.994;4.448;2023-02-01T03:46:35;7.81;73.35
71291;DHT22;59073;51.994;4.448;2023-02-01T03:49:06;7.79;73.51
71291;DHT22;59073;51.994;4.448;2023-02-01T03:51:36;7.74;73.65
71291;DHT22;59073;51.994;4.448;2023-02-01T03:54:05;7.67;73.61
71291;DHT22;59073;51.994;4.448;2023-02-01T03:56:36;7.72;73.51
71291;DHT22;59073;51.994;4.448;2023-02-01T03:59:02;7.62;73.36
71291;DHT22;59073;51.994;4.448;2023-02-01T04:01:29;7.59;73.58
71291;DHT22;59073;51.994;4.448;2023-02-01T04:03:57;7.67;73.64
71291;DHT22;59073;51.994;4.448;2023-02-01T04:06:23;7.69;73.30
71291;DHT22;59073;51.994;4.448;2023-02-01T04:08:50;7.65;73.27
71291;DHT22;59073;51.994;4.448;2023-02-01T04:11:16;7.67;73.20
71291;DHT22;59073;51.994;4.448;2023-02-01T04:13:41;7.71;73.32
71291;DHT22;59073;51.994;4.448;2023-02-01T04:16:07;7.79;73.33
71291;DHT22;59073;51.994;4.448;2023-02-01T04:18:32;7.83;73.24
71291;DHT22;59073;51.994;4.448;2023-02-01T04:20:58;7.89;72.87
71291;DHT22;59073;51.994;4.448;2023-02-01T04:23:23;7.88;72.78
71291;DHT22;59073;51.994;4.448;2023-02-01T04:25:49;7.89;72.91
71291;DHT22;59073;51.994;4.448;2023-02-01T04:28:14;7.90;73.03
71291;DHT22;59073;51.994;4.448;2023-02-01T04:30:39;7.88;72.85
71291;DHT22;59073;51.994;4.448;2023-02-01T04:33:05;7.88;72.99
71291;DHT22;59073;51.994;4.448;2023-02-01T04:35:31;7.89;73.06
71291;DHT22;59073;51.994;4.448;2023-02-01T04:37:56;7.90;72.93
71291;DHT22;59073;51.994;4.448;2023-02-01T04:40:22;7.90;73.09
71291;DHT22;59073;51.994;4.448;2023-02-01T04:42:47;7.92;72.98
71291;DHT22;59073;51.994;4.448;2023-02-01T04:45:12;7.88;72.85
71291;DHT22;59073;51.994;4.448;2023-02-01T04:47:38;7.88;72.79
71291;DHT22;59073;51.994;4.448;2023-02-01T04:50:04;7.79;72.75
71291;DHT22;59073;51.994;4.448;2023-02-01T04:52:31;7.79;72.97
71291;DHT22;59073;51.994;4.448;2023-02-01T04:54:57;7.74;73.21
71291;DHT22;59073;51.994;4.448;2023-02-01T04:57:24;7.75;73.36
71291;DHT22;59073;51.994;4.448;2023-02-01T04:59:50;7.72;73.09
71291;DHT22;59073;51.994;4.448;2023-02-01T05:02:16;7.68;73.21
71291;DHT22;59073;51.994;4.448;2023-02-01T05:04:41;7.68;73.44
71291;DHT22;59073;51.994;4.448;2023-02-01T05:07:06;7.54;73.88
71291;DHT22;59073;51.994;4.448;2023-02-01T05:09:32;7.47;73.82
71291;DHT22;59073;51.994;4.448;2023-02-01T05:11:57;7.52;73.77
71291;DHT22;59073;51.994;4.448;2023-02-01T05:14:41;7.52;73.91
71291;DHT22;59073;51.994;4.448;2023-02-01T05:17:07;7.50;73.82
71291;DHT22;59073;51.994;4.448;2023-02-01T05:19:33;7.48;73.93
71291;DHT22;59073;51.994;4.448;2023-02-01T05:21:58;7.51;74.17
71291;DHT22;59073;51.994;4.448;2023-02-01T05:24:23;7.45;74.23
71291;DHT22;59073;51.994;4.448;2023-02-01T05:26:49;7.50;74.35
71291;DHT22;59073;51.994;4.448;2023-02-01T05:29:16;7.45;74.52
71291;DHT22;59073;51.994;4.448;2023-02-01T05:31:44;7.43;74.69
71291;DHT22;59073;51.994;4.448;2023-02-01T05:34:10;7.51;74.40
71291;DHT22;59073;51.994;4.448;2023-02-01T05:36:35;7.47;74.73
71291;DHT22;59073;51.994;4.448;2023-02-01T05:39:01;7.45;74.70
71291;DHT22;59073;51.994;4.448;2023-02-01T05:41:26;7.54;74.61
71291;DHT22;59073;51.994;4.448;2023-02-01T05:43:51;7.58;74.66
71291;DHT22;59073;51.994;4.448;2023-02-01T05:46:17;7.65;74.49
71291;DHT22;59073;51.994;4.448;2023-02-01T05:48:43;7.67;74.24
71291;DHT22;59073;51.994;4.448;2023-02-01T05:51:10;7.75;73.99
71291;DHT22;59073;51.994;4.448;2023-02-01T05:53:36;7.61;74.18
71291;DHT22;59073;51.994;4.448;2023-02-01T05:56:01;7.54;74.64
71291;DHT22;59073;51.994;4.448;2023-02-01T05:58:27;7.48;74.84
71291;DHT22;59073;51.994;4.448;2023-02-01T06:00:52;7.52;74.81
71291;DHT22;59073;51.994;4.448;2023-02-01T06:03:18;7.52;74.82
71291;DHT22;59073;51.994;4.448;2023-02-01T06:05:44;7.44;75.28
71291;DHT22;59073;51.994;4.448;2023-02-01T06:08:10;7.47;75.37
71291;DHT22;59073;51.994;4.448;2023-02-01T06:10:36;7.47;75.43
71291;DHT22;59073;51.994;4.448;2023-02-01T06:13:01;7.51;75.51
71291;DHT22;59073;51.994;4.448;2023-02-01T06:15:29;7.58;75.28
71291;DHT22;59073;51.994;4.448;2023-02-01T06:17:54;7.54;75.49
71291;DHT22;59073;51.994;4.448;2023-02-01T06:20:21;7.57;75.51
71291;DHT22;59073;51.994;4.448;2023-02-01T06:22:46;7.57;75.20
71291;DHT22;59073;51.994;4.448;2023-02-01T06:25:12;7.65;74.87
71291;DHT22;59073;51.994;4.448;2023-02-01T06:27:37;7.59;74.69
71291;DHT22;59073;51.994;4.448;2023-02-01T06:30:04;7.67;74.13
71291;DHT22;59073;51.994;4.448;2023-02-01T06:32:30;7.65;74.18
71291;DHT22;59073;51.994;4.448;2023-02-01T06:34:56;7.71;74.24
71291;DHT22;59073;51.994;4.448;2023-02-01T06:37:22;7.67;74.00
71291;DHT22;59073;51.994;4.448;2023-02-01T06:39:50;7.71;73.63
71291;DHT22;59073;51.994;4.448;2023-02-01T06:42:15;7.72;74.07
71291;DHT22;59073;51.994;4.448;2023-02-01T06:44:41;7.62;74.41
71291;DHT22;59073;51.994;4.448;2023-02-01T06:47:06;7.74;74.27
71291;DHT22;59073;51.994;4.448;2023-02-01T06:49:32;7.71;74.09
71291;DHT22;59073;51.994;4.448;2023-02-01T06:51:58;7.75;74.10
71291;DHT22;59073;51.994;4.448;2023-02-01T06:54:26;7.64;74.58
71291;DHT22;59073;51.994;4.448;2023-02-01T06:56:51;7.68;74.74
71291;DHT22;59073;51.994;4.448;2023-02-01T06:59:16;7.64;74.95
71291;DHT22;59073;51.994;4.448;2023-02-01T07:01:42;7.65;74.89
71291;DHT22;59073;51.994;4.448;2023-02-01T07:04:10;7.64;74.82
71291;DHT22;59073;51.994;4.448;2023-02-01T07:06:36;7.65;74.93
71291;DHT22;59073;51.994;4.448;2023-02-01T07:09:01;7.62;75.24
71291;DHT22;59073;51.994;4.448;2023-02-01T07:11:26;7.67;75.09
71291;DHT22;59073;51.994;4.448;2023-02-01T07:13:53;7.69;75.02
71291;DHT22;59073;51.994;4.448;2023-02-01T07:16:19;7.74;74.86
71291;DHT22;59073;51.994;4.448;2023-02-01T07:18:46;7.72;74.75
71291;DHT22;59073;51.994;4.448;2023-02-01T07:21:12;7.75;74.80
71291;DHT22;59073;51.994;4.448;2023-02-01T07:23:38;7.72;74.65
71291;DHT22;59073;51.994;4.448;2023-02-01T07:26:06;7.75;74.46
71291;DHT22;59073;51.994;4.448;2023-02-01T07:28:34;7.74;74.75
71291;DHT22;59073;51.994;4.448;2023-02-01T07:31:11;7.75;74.85
71291;DHT22;59073;51.994;4.448;2023-02-01T07:33:39;7.69;75.17
71291;DHT22;59073;51.994;4.448;2023-02-01T07:36:06;7.69;75.12
71291;DHT22;59073;51.994;4.448;2023-02-01T07:38:32;7.75;75.05
71291;DHT22;59073;51.994;4.448;2023-02-01T07:41:02;7.72;74.80
71291;DHT22;59073;51.994;4.448;2023-02-01T07:43:29;7.68;75.00
71291;DHT22;59073;51.994;4.448;2023-02-01T07:45:55;7.67;74.95
71291;DHT22;59073;51.994;4.448;2023-02-01T07:48:22;7.67;74.81
71291;DHT22;59073;51.994;4.448;2023-02-01T07:50:48;7.67;74.83
71291;DHT22;59073;51.994;4.448;2023-02-01T07:53:14;7.69;74.95
71291;DHT22;59073;51.994;4.448;2023-02-01T07:55:40;7.74;75.10
71291;DHT22;59073;51.994;4.448;2023-02-01T07:58:06;7.74;75.18
71291;DHT22;59073;51.994;4.448;2023-02-01T08:00:32;7.76;75.01
71291;DHT22;59073;51.994;4.448;2023-02-01T08:03:16;7.85;74.89
71291;DHT22;59073;51.994;4.448;2023-02-01T08:05:42;7.85;75.14
71291;DHT22;59073;51.994;4.448;2023-02-01T08:08:07;7.83;75.09
71291;DHT22;59073;51.994;4.448;2023-02-01T08:10:34;7.93;74.84
71291;DHT22;59073;51.994;4.448;2023-02-01T08:13:01;7.98;74.63
71291;DHT22;59073;51.994;4.448;2023-02-01T08:15:30;8.00;74.52
71291;DHT22;59073;51.994;4.448;2023-02-01T08:17:55;7.99;74.42
71291;DHT22;59073;51.994;4.448;2023-02-01T08:20:22;8.14;73.97
71291;DHT22;59073;51.994;4.448;2023-02-01T08:22:54;8.19;73.64
71291;DHT22;59073;51.994;4.448;2023-02-01T08:25:20;8.37;73.49
71291;DHT22;59073;51.994;4.448;2023-02-01T08:27:45;8.36;73.01
71291;DHT22;59073;51.994;4.448;2023-02-01T08:30:11;8.37;73.04
71291;DHT22;59073;51.994;4.448;2023-02-01T08:32:37;8.37;73.12
71291;DHT22;59073;51.994;4.448;2023-02-01T08:35:04;8.34;73.12
71291;DHT22;59073;51.994;4.448;2023-02-01T08:37:29;8.37;73.16
71291;DHT22;59073;51.994;4.448;2023-02-01T08:39:55;8.34;73.81
71291;DHT22;59073;51.994;4.448;2023-02-01T08:42:20;8.41;73.58
71291;DHT22;59073;51.994;4.448;2023-02-01T08:45:05;8.54;73.21
71291;DHT22;59073;51.994;4.448;2023-02-01T08:47:31;8.54;73.29
71291;DHT22;59073;51.994;4.448;2023-02-01T08:49:56;8.67;73.23
71291;DHT22;59073;51.994;4.448;2023-02-01T08:52:22;8.74;73.33
71291;DHT22;59073;51.994;4.448;2023-02-01T08:54:47;8.67;73.08
71291;DHT22;59073;51.994;4.448;2023-02-01T08:57:13;8.70;73.14
71291;DHT22;59073;51.994;4.448;2023-02-01T08:59:38;8.79;72.83
71291;DHT22;59073;51.994;4.448;2023-02-01T09:02:04;8.98;72.49
71291;DHT22;59073;51.994;4.448;2023-02-01T09:04:29;9.19;72.16
71291;DHT22;59073;51.994;4.448;2023-02-01T09:06:57;9.26;71.53
71291;DHT22;59073;51.994;4.448;2023-02-01T09:09:23;9.28;71.46
71291;DHT22;59073;51.994;4.448;2023-02-01T09:11:48;9.18;71.56
71291;DHT22;59073;51.994;4.448;2023-02-01T09:14:16;9.05;71.57
71291;DHT22;59073;51.994;4.448;2023-02-01T09:16:42;8.98;71.88
71291;DHT22;59073;51.994;4.448;2023-02-01T09:19:07;8.98;72.08
71291;DHT22;59073;51.994;4.448;2023-02-01T09:21:33;9.04;71.86
71291;DHT22;59073;51.994;4.448;2023-02-01T09:23:59;9.12;71.57
71291;DHT22;59073;51.994;4.448;2023-02-01T09:26:24;9.16;71.51
71291;DHT22;59073;51.994;4.448;2023-02-01T09:28:51;8.97;72.15
71291;DHT22;59073;51.994;4.448;2023-02-01T09:31:16;8.87;72.36
71291;DHT22;59073;51.994;4.448;2023-02-01T09:33:41;8.93;72.00
71291;DHT22;59073;51.994;4.448;2023-02-01T09:36:07;8.98;71.82
71291;DHT22;59073;51.994;4.448;2023-02-01T09:38:32;9.05;72.14
71291;DHT22;59073;51.994;4.448;2023-02-01T09:40:58;9.12;71.94
71291;DHT22;59073;51.994;4.448;2023-02-01T09:43:28;9.20;71.38
71291;DHT22;59073;51.994;4.448;2023-02-01T09:46:18;9.15;71.26
71291;DHT22;59073;51.994;4.448;2023-02-01T09:48:46;9.11;71.56
71291;DHT22;59073;51.994;4.448;2023-02-01T09:51:22;9.01;71.26
71291;DHT22;59073;51.994;4.448;2023-02-01T09:56:40;8.82;71.92
71291;DHT22;59073;51.994;4.448;2023-02-01T09:59:23;8.84;72.11
71291;DHT22;59073;51.994;4.448;2023-02-01T10:01:51;8.84;72.21
71291;DHT22;59073;51.994;4.448;2023-02-01T10:04:18;8.85;71.80
71291;DHT22;59073;51.994;4.448;2023-02-01T10:07:09;8.77;72.00
71291;DHT22;59073;51.994;4.448;2023-02-01T10:15:39;8.61;72.48
71291;DHT22;59073;51.994;4.448;2023-02-01T10:24:21;8.71;72.70
71291;DHT22;59073;51.994;4.448;2023-02-01T10:26:47;8.89;72.39
71291;DHT22;59073;51.994;4.448;2023-02-01T10:29:25;8.85;72.67
71291;DHT22;59073;51.994;4.448;2023-02-01T10:31:52;9.01;72.82
71291;DHT22;59073;51.994;4.448;2023-02-01T10:34:26;9.02;72.48
71291;DHT22;59073;51.994;4.448;2023-02-01T10:37:00;9.14;72.37
71291;DHT22;59073;51.994;4.448;2023-02-01T10:39:26;9.08;72.16
71291;DHT22;59073;51.994;4.448;2023-02-01T10:41:55;9.19;71.96
71291;DHT22;59073;51.994;4.448;2023-02-01T10:44:30;9.14;72.23
71291;DHT22;59073;51.994;4.448;2023-02-01T10:46:58;9.16;71.88
71291;DHT22;59073;51.994;4.448;2023-02-01T10:49:37;9.35;71.47
71291;DHT22;59073;51.994;4.448;2023-02-01T10:52:11;9.43;71.20
71291;DHT22;59073;51.994;4.448;2023-02-01T10:54:39;9.53;71.13
71291;DHT22;59073;51.994;4.448;2023-02-01T10:57:11;9.57;70.67
71291;DHT22;59073;51.994;4.448;2023-02-01T10:59:44;9.49;70.47
71291;DHT22;59073;51.994;4.448;2023-02-01T11:02:36;9.35;70.97
71291;DHT22;59073;51.994;4.448;2023-02-01T11:05:04;9.42;71.54
71291;DHT22;59073;51.994;4.448;2023-02-01T11:07:32;9.43;71.46
71291;DHT22;59073;51.994;4.448;2023-02-01T11:09:57;9.39;71.22
71291;DHT22;59073;51.994;4.448;2023-02-01T11:12:28;9.40;71.69
71291;DHT22;59073;51.994;4.448;2023-02-01T11:15:20;9.38;71.66
71291;DHT22;59073;51.994;4.448;2023-02-01T11:17:48;9.42;71.49
71291;DHT22;59073;51.994;4.448;2023-02-01T11:22:59;9.30;71.55
71291;DHT22;59073;51.994;4.448;2023-02-01T11:25:25;9.38;72.29
71291;DHT22;59073;51.994;4.448;2023-02-01T11:27:54;9.36;71.49
71291;DHT22;59073;51.994;4.448;2023-02-01T11:30:38;9.32;71.73
71291;DHT22;59073;51.994;4.448;2023-02-01T11:33:15;9.29;71.43
71291;DHT22;59073;51.994;4.448;2023-02-01T11:35:42;9.29;71.74
71291;DHT22;59073;51.994;4.448;2023-02-01T11:38:31;9.32;71.69
71291;DHT22;59073;51.994;4.448;2023-02-01T11:41:14;9.39;71.83
71291;DHT22;59073;51.994;4.448;2023-02-01T11:46:19;9.49;71.42
71291;DHT22;59073;51.994;4.448;2023-02-01T11:48:51;9.44;71.40
71291;DHT22;59073;51.994;4.448;2023-02-01T11:51:24;9.35;71.38
71291;DHT22;59073;51.994;4.448;2023-02-01T11:54:23;9.22;71.27
71291;DHT22;59073;51.994;4.448;2023-02-01T11:56:55;9.29;72.19
71291;DHT22;59073;51.994;4.448;2023-02-01T11:59:29;9.22;71.97
71291;DHT22;59073;51.994;4.448;2023-02-01T12:05:11;9.20;71.97
71291;DHT22;59073;51.994;4.448;2023-02-01T12:07:49;9.18;71.97
71291;DHT22;59073;51.994;4.448;2023-02-01T12:18:27;9.04;72.56
71291;DHT22;59073;51.994;4.448;2023-02-01T12:21:03;9.05;72.68
71291;DHT22;59073;51.994;4.448;2023-02-01T12:24:07;9.12;72.58
71291;DHT22;59073;51.994;4.448;2023-02-01T12:27:03;9.11;72.22
71291;DHT22;59073;51.994;4.448;2023-02-01T12:38:26;9.61;71.71
71291;DHT22;59073;51.994;4.448;2023-02-01T12:41:33;9.51;72.57
71291;DHT22;59073;51.994;4.448;2023-02-01T12:49:27;9.42;72.34
71291;DHT22;59073;51.994;4.448;2023-02-01T12:52:04;9.36;72.35
71291;DHT22;59073;51.994;4.448;2023-02-01T12:54:39;9.47;71.83
71291;DHT22;59073;51.994;4.448;2023-02-01T12:57:30;9.60;71.35
71291;DHT22;59073;51.994;4.448;2023-02-01T13:08:36;9.47;71.88
71291;DHT22;59073;51.994;4.448;2023-02-01T13:11:10;9.57;72.32
71291;DHT22;59073;51.994;4.448;2023-02-01T13:13:51;9.83;71.06
71291;DHT22;59073;51.994;4.448;2023-02-01T13:16:42;10.08;71.05
71291;DHT22;59073;51.994;4.448;2023-02-01T13:22:13;9.86;71.00
71291;DHT22;59073;51.994;4.448;2023-02-01T13:24:55;9.73;71.93
71291;DHT22;59073;51.994;4.448;2023-02-01T13:27:26;9.63;71.87
71291;DHT22;59073;51.994;4.448;2023-02-01T13:29:59;9.53;72.69
71291;DHT22;59073;51.994;4.448;2023-02-01T13:32:52;9.44;72.96
71291;DHT22;59073;51.994;4.448;2023-02-01T13:41:29;9.29;73.76
71291;DHT22;59073;51.994;4.448;2023-02-01T13:44:05;9.29;73.41
71291;DHT22;59073;51.994;4.448;2023-02-01T13:46:40;9.29;73.49
71291;DHT22;59073;51.994;4.448;2023-02-01T13:49:20;9.25;73.47
71291;DHT22;59073;51.994;4.448;2023-02-01T13:51:51;9.32;73.69
71291;DHT22;59073;51.994;4.448;2023-02-01T13:54:34;9.30;73.54
71291;DHT22;59073;51.994;4.448;2023-02-01T13:57:03;9.39;73.41
71291;DHT22;59073;51.994;4.448;2023-02-01T13:59:49;9.46;73.26
71291;DHT22;59073;51.994;4.448;2023-02-01T14:02:45;9.44;73.63
71291;DHT22;59073;51.994;4.448;2023-02-01T14:13:38;9.46;73.72
71291;DHT22;59073;51.994;4.448;2023-02-01T14:21:27;9.49;73.80
71291;DHT22;59073;51.994;4.448;2023-02-01T14:26:40;9.38;74.29
71291;DHT22;59073;51.994;4.448;2023-02-01T14:34:18;9.53;74.13
71291;DHT22;59073;51.994;4.448;2023-02-01T14:36:58;9.47;74.52
71291;DHT22;59073;51.994;4.448;2023-02-01T14:39:40;9.54;74.25
71291;DHT22;59073;51.994;4.448;2023-02-01T14:48:41;9.53;74.48
71291;DHT22;59073;51.994;4.448;2023-02-01T14:50:43;9.54;74.45
71291;DHT22;59073;51.994;4.448;2023-02-01T15:01:13;9.51;75.10
71291;DHT22;59073;51.994;4.448;2023-02-01T15:04:01;9.54;75.30
71291;DHT22;59073;51.994;4.448;2023-02-01T15:06:43;9.61;74.97
71291;DHT22;59073;51.994;4.448;2023-02-01T15:12:01;9.53;75.21
71291;DHT22;59073;51.994;4.448;2023-02-01T15:14:29;9.50;75.09
71291;DHT22;59073;51.994;4.448;2023-02-01T15:16:55;9.49;75.38
71291;DHT22;59073;51.994;4.448;2023-02-01T15:19:24;9.61;74.96
71291;DHT22;59073;51.994;4.448;2023-02-01T15:21:55;9.59;74.98
71291;DHT22;59073;51.994;4.448;2023-02-01T15:24:29;9.60;74.71
71291;DHT22;59073;51.994;4.448;2023-02-01T15:27:05;9.59;74.30
71291;DHT22;59073;51.994;4.448;2023-02-01T15:29:31;9.57;74.57
71291;DHT22;59073;51.994;4.448;2023-02-01T15:31:59;9.53;74.34
71291;DHT22;59073;51.994;4.448;2023-02-01T15:34:48;9.49;74.67
71291;DHT22;59073;51.994;4.448;2023-02-01T15:37:16;9.54;74.52
71291;DHT22;59073;51.994;4.448;2023-02-01T15:42:55;9.57;74.12
71291;DHT22;59073;51.994;4.448;2023-02-01T15:45:25;9.63;73.81
71291;DHT22;59073;51.994;4.448;2023-02-01T15:47:55;9.61;73.80
71291;DHT22;59073;51.994;4.448;2023-02-01T15:50:21;9.64;73.82
71291;DHT22;59073;51.994;4.448;2023-02-01T15:52:50;9.61;74.10
71291;DHT22;59073;51.994;4.448;2023-02-01T15:57:46;9.74;73.34
71291;DHT22;59073;51.994;4.448;2023-02-01T16:00:23;9.73;73.24
71291;DHT22;59073;51.994;4.448;2023-02-01T16:02:55;9.57;73.68
71291;DHT22;59073;51.994;4.448;2023-02-01T16:05:42;9.60;73.68
71291;DHT22;59073;51.994;4.448;2023-02-01T16:08:21;9.61;73.63
71291;DHT22;59073;51.994;4.448;2023-02-01T16:10:49;9.64;73.50
71291;DHT22;59073;51.994;4.448;2023-02-01T16:13:18;9.69;73.66
71291;DHT22;59073;51.994;4.448;2023-02-01T16:15:47;9.70;73.63
71291;DHT22;59073;51.994;4.448;2023-02-01T16:18:14;9.70;73.73
71291;DHT22;59073;51.994;4.448;2023-02-01T16:20:41;9.66;73.69
71291;DHT22;59073;51.994;4.448;2023-02-01T16:23:08;9.76;73.69
71291;DHT22;59073;51.994;4.448;2023-02-01T16:25:35;9.73;73.47
71291;DHT22;59073;51.994;4.448;2023-02-01T16:28:02;9.77;73.60
71291;DHT22;59073;51.994;4.448;2023-02-01T16:30:27;9.73;73.59
71291;DHT22;59073;51.994;4.448;2023-02-01T16:32:55;9.77;73.76
71291;DHT22;59073;51.994;4.448;2023-02-01T16:38:04;9.73;74.21
71291;DHT22;59073;51.994;4.448;2023-02-01T16:40:37;9.63;74.67
71291;DHT22;59073;51.994;4.448;2023-02-01T16:43:21;9.64;74.84
71291;DHT22;59073;51.994;4.448;2023-02-01T16:45:48;9.71;74.85
71291;DHT22;59073;51.994;4.448;2023-02-01T16:48:24;9.66;75.00
71291;DHT22;59073;51.994;4.448;2023-02-01T16:50:53;9.74;74.92
71291;DHT22;59073;51.994;4.448;2023-02-01T16:53:24;9.69;75.08
71291;DHT22;59073;51.994;4.448;2023-02-01T16:55:50;9.60;75.36
71291;DHT22;59073;51.994;4.448;2023-02-01T16:58:18;9.60;75.47
71291;DHT22;59073;51.994;4.448;2023-02-01T17:00:45;9.51;75.80
71291;DHT22;59073;51.994;4.448;2023-02-01T17:03:11;9.44;75.98
71291;DHT22;59073;51.994;4.448;2023-02-01T17:05:54;9.43;76.14
71291;DHT22;59073;51.994;4.448;2023-02-01T17:08:34;9.35;76.53
71291;DHT22;59073;51.994;4.448;2023-02-01T17:11:00;9.35;76.61
71291;DHT22;59073;51.994;4.448;2023-02-01T17:13:25;9.29;76.71
71291;DHT22;59073;51.994;4.448;2023-02-01T17:16:00;9.22;76.87
71291;DHT22;59073;51.994;4.448;2023-02-01T17:18:28;9.29;76.74
71291;DHT22;59073;51.994;4.448;2023-02-01T17:21:00;9.38;76.53
71291;DHT22;59073;51.994;4.448;2023-02-01T17:23:28;9.42;76.32
71291;DHT22;59073;51.994;4.448;2023-02-01T17:25:54;9.46;76.24
71291;DHT22;59073;51.994;4.448;2023-02-01T17:28:20;9.43;76.26
71291;DHT22;59073;51.994;4.448;2023-02-01T17:30:46;9.43;76.33
71291;DHT22;59073;51.994;4.448;2023-02-01T17:33:23;9.46;76.31
71291;DHT22;59073;51.994;4.448;2023-02-01T17:35:49;9.47;76.23
71291;DHT22;59073;51.994;4.448;2023-02-01T17:38:15;9.47;76.29
71291;DHT22;59073;51.994;4.448;2023-02-01T17:40:41;9.50;76.33
71291;DHT22;59073;51.994;4.448;2023-02-01T17:43:15;9.43;76.55
71291;DHT22;59073;51.994;4.448;2023-02-01T17:45:49;9.46;76.25
71291;DHT22;59073;51.994;4.448;2023-02-01T17:48:18;9.54;76.11
71291;DHT22;59073;51.994;4.448;2023-02-01T17:50:48;9.53;76.14
71291;DHT22;59073;51.994;4.448;2023-02-01T17:53:24;9.57;76.20
71291;DHT22;59073;51.994;4.448;2023-02-01T17:55:51;9.59;77.30
71291;DHT22;59073;51.994;4.448;2023-02-01T17:58:17;9.63;76.02
71291;DHT22;59073;51.994;4.448;2023-02-01T18:00:45;9.60;75.85
71291;DHT22;59073;51.994;4.448;2023-02-01T18:03:19;9.57;76.27
71291;DHT22;59073;51.994;4.448;2023-02-01T18:05:46;9.53;76.34
71291;DHT22;59073;51.994;4.448;2023-02-01T18:08:18;9.59;76.29
71291;DHT22;59073;51.994;4.448;2023-02-01T18:10:47;9.54;76.35
71291;DHT22;59073;51.994;4.448;2023-02-01T18:13:13;9.61;76.35
71291;DHT22;59073;51.994;4.448;2023-02-01T18:15:38;9.63;76.27
71291;DHT22;59073;51.994;4.448;2023-02-01T18:18:04;9.59;76.15
71291;DHT22;59073;51.994;4.448;2023-02-01T18:20:30;9.60;76.35
71291;DHT22;59073;51.994;4.448;2023-02-01T18:22:56;9.53;76.39
71291;DHT22;59073;51.994;4.448;2023-02-01T18:25:23;9.63;76.20
71291;DHT22;59073;51.994;4.448;2023-02-01T18:27:54;9.59;76.46
71291;DHT22;59073;51.994;4.448;2023-02-01T18:30:22;9.54;76.49